createdAt,value
2023-12-10T00:01:38.755Z,4.00
2023-12-10T00:03:43.740Z,5.18
2023-12-10T00:06:00.334Z,5.07
2023-12-10T00:08:15.048Z,4.70
2023-12-10T00:10:17.332Z,3.33
2023-12-10T00:12:22.159Z,3.40
2023-12-10T00:14:28.516Z,4.68
2023-12-10T00:16:33.272Z,5.65
2023-12-10T00:18:38.208Z,3.83
2023-12-10T00:20:43.203Z,5.20
2023-12-10T00:22:50.678Z,4.65
2023-12-10T00:24:55.639Z,5.22
2023-12-10T00:26:57.844Z,4.63
2023-12-10T00:29:02.701Z,4.40
2023-12-10T00:31:12.048Z,3.88
2023-12-10T00:33:17.531Z,3.97
2023-12-10T00:35:22.807Z,4.10
2023-12-10T00:37:27.716Z,5.15
2023-12-10T00:39:35.316Z,3.33
2023-12-10T00:41:40.587Z,4.03
2023-12-10T00:43:46.038Z,3.47
2023-12-10T00:45:50.906Z,4.38
2023-12-10T00:47:55.842Z,4.00
2023-12-10T00:49:58.124Z,5.13
2023-12-10T00:52:04.102Z,4.57
2023-12-10T00:54:09.312Z,4.70
2023-12-10T00:56:17.141Z,3.92
2023-12-10T00:58:24.633Z,4.45
2023-12-10T01:00:29.664Z,4.28
2023-12-10T01:02:32.112Z,4.45
2023-12-10T01:04:37.740Z,4.40
2023-12-10T01:06:42.870Z,4.82
2023-12-10T01:08:50.085Z,3.63
2023-12-10T01:10:54.794Z,4.13
2023-12-10T01:13:02.243Z,4.13
2023-12-10T01:15:07.868Z,3.63
2023-12-10T01:17:13.989Z,4.18
2023-12-10T01:19:18.893Z,3.38
2023-12-10T01:21:21.281Z,4.22
2023-12-10T01:23:26.070Z,3.42
2023-12-10T01:25:30.901Z,4.60
2023-12-10T01:27:38.035Z,4.10
2023-12-10T01:29:45.660Z,4.40
2023-12-10T01:31:50.882Z,3.15
2023-12-10T01:34:00.125Z,4.93
2023-12-10T01:36:02.488Z,3.97
2023-12-10T01:38:07.948Z,3.67
2023-12-10T01:40:13.835Z,3.00
2023-12-10T01:42:18.740Z,4.72
2023-12-10T01:44:23.573Z,3.72
2023-12-10T01:46:30.850Z,3.67
2023-12-10T01:48:36.689Z,3.83
2023-12-10T01:50:42.846Z,4.00
2023-12-10T01:52:46.651Z,4.88
2023-12-10T01:54:52.035Z,3.47
2023-12-10T01:57:06.558Z,4.18
2023-12-10T01:59:12.447Z,4.15
2023-12-10T02:01:17.366Z,3.95
2023-12-10T02:03:25.602Z,3.80
2023-12-10T02:05:30.644Z,5.15
2023-12-10T02:07:33.068Z,4.57
2023-12-10T02:09:38.302Z,3.63
2023-12-10T02:11:44.012Z,4.43
2023-12-10T02:13:49.350Z,4.05
2023-12-10T02:15:54.957Z,4.88
2023-12-10T02:18:03.085Z,2.88
2023-12-10T02:20:13.965Z,4.78
2023-12-10T02:22:21.602Z,4.18
2023-12-10T02:24:29.937Z,3.28
2023-12-10T02:26:38.297Z,4.30
2023-12-10T02:28:40.622Z,4.38
2023-12-10T02:30:45.697Z,4.50
2023-12-10T02:32:50.697Z,3.28
2023-12-10T02:34:55.749Z,3.45
2023-12-10T02:37:00.534Z,4.05
2023-12-10T02:39:05.533Z,3.75
2023-12-10T02:41:10.737Z,4.00
2023-12-10T02:43:18.822Z,4.10
2023-12-10T02:45:23.772Z,4.47
2023-12-10T02:47:28.749Z,3.90
2023-12-10T02:49:33.974Z,3.63
2023-12-10T02:51:38.890Z,4.22
2023-12-10T02:53:43.727Z,3.55
2023-12-10T02:55:48.472Z,4.32
2023-12-10T02:57:51.146Z,4.53
2023-12-10T02:59:58.612Z,4.38
2023-12-10T03:02:03.287Z,4.65
2023-12-10T03:04:08.342Z,4.57
2023-12-10T03:06:13.322Z,4.40
2023-12-10T03:08:18.138Z,4.00
2023-12-10T03:10:20.554Z,5.13
2023-12-10T03:12:28.391Z,4.78
2023-12-10T03:14:30.965Z,4.07
2023-12-10T03:16:38.434Z,4.40
2023-12-10T03:18:43.352Z,4.85
2023-12-10T03:20:45.708Z,5.55
2023-12-10T03:22:52.043Z,3.45
2023-12-10T03:25:01.710Z,4.60
2023-12-10T03:27:07.977Z,3.35
2023-12-10T03:29:12.883Z,4.35
2023-12-10T03:31:17.866Z,4.72
2023-12-10T03:33:25.446Z,3.83
2023-12-10T03:35:30.296Z,4.10
2023-12-10T03:37:35.090Z,5.53
2023-12-10T03:39:39.943Z,4.05
2023-12-10T03:41:44.756Z,3.50
2023-12-10T03:43:49.609Z,3.60
2023-12-10T03:45:54.519Z,4.07
2023-12-10T03:48:01.822Z,5.30
2023-12-10T03:50:11.036Z,4.20
2023-12-10T03:52:15.955Z,4.13
2023-12-10T03:54:20.681Z,4.38
2023-12-10T03:56:25.797Z,5.20
2023-12-10T03:58:27.891Z,5.10
2023-12-10T04:00:33.112Z,3.78
2023-12-10T04:02:35.381Z,4.43
2023-12-10T04:04:40.891Z,6.03
2023-12-10T04:06:48.723Z,4.85
2023-12-10T04:08:53.547Z,3.17
2023-12-10T04:10:58.494Z,3.53
2023-12-10T04:13:03.336Z,4.43
2023-12-10T04:15:09.750Z,4.95
2023-12-10T04:17:15.884Z,3.58
2023-12-10T04:19:22.429Z,3.05
2023-12-10T04:21:27.467Z,4.30
2023-12-10T04:23:34.869Z,3.28
2023-12-10T04:25:42.276Z,4.18
2023-12-10T04:27:47.911Z,5.07
2023-12-10T04:29:53.345Z,3.20
2023-12-10T04:31:58.543Z,2.85
2023-12-10T04:34:02.946Z,4.85
2023-12-10T04:36:09.321Z,3.03
2023-12-10T04:38:15.465Z,4.22
2023-12-10T04:40:23.786Z,3.17
2023-12-10T04:42:30.817Z,3.85
2023-12-10T04:44:33.690Z,4.00
2023-12-10T04:46:39.625Z,4.82
2023-12-10T04:48:41.971Z,3.75
2023-12-10T04:50:51.071Z,3.47
2023-12-10T04:52:55.809Z,3.70
2023-12-10T04:55:01.520Z,3.22
2023-12-10T04:57:08.906Z,4.10
2023-12-10T04:59:13.723Z,4.15
2023-12-10T05:01:17.001Z,4.80
2023-12-10T05:03:22.047Z,3.38
2023-12-10T05:05:28.889Z,4.28
2023-12-10T05:07:33.925Z,3.38
2023-12-10T05:09:38.946Z,4.45
2023-12-10T05:11:43.785Z,3.13
2023-12-10T05:13:52.158Z,3.45
2023-12-10T05:15:58.639Z,3.72
2023-12-10T05:18:05.360Z,4.93
2023-12-10T05:20:14.670Z,4.05
2023-12-10T05:22:20.652Z,3.70
2023-12-10T05:24:27.696Z,3.60
2023-12-10T05:26:32.541Z,3.75
2023-12-10T05:28:40.767Z,4.45
2023-12-10T05:30:51.304Z,3.50
2023-12-10T05:32:56.324Z,3.35
2023-12-10T05:35:01.500Z,3.58
2023-12-10T05:37:06.610Z,3.67
2023-12-10T05:39:12.349Z,4.15
2023-12-10T05:41:17.457Z,3.25
2023-12-10T05:43:22.286Z,3.38
2023-12-10T05:45:28.604Z,5.03
2023-12-10T05:47:37.139Z,3.22
2023-12-10T05:49:41.981Z,2.75
2023-12-10T05:51:48.303Z,5.50
2023-12-10T05:53:55.569Z,3.60
2023-12-10T05:56:01.899Z,2.80
2023-12-10T05:58:07.455Z,5.05
2023-12-10T06:00:13.527Z,3.50
2023-12-10T06:02:18.455Z,4.72
2023-12-10T06:04:26.634Z,3.70
2023-12-10T06:06:32.874Z,4.03
2023-12-10T06:08:37.942Z,3.38
2023-12-10T06:10:42.915Z,4.85
2023-12-10T06:12:47.748Z,4.30
2023-12-10T06:14:52.539Z,3.83
2023-12-10T06:16:57.383Z,3.58
2023-12-10T06:19:02.319Z,2.92
2023-12-10T06:21:10.501Z,4.68
2023-12-10T06:23:18.282Z,3.83
2023-12-10T06:25:23.133Z,3.63
2023-12-10T06:27:27.936Z,2.83
2023-12-10T06:29:30.146Z,4.15
2023-12-10T06:31:35.240Z,3.65
2023-12-10T06:33:40.746Z,3.63
2023-12-10T06:35:48.168Z,3.20
2023-12-10T06:37:55.958Z,3.05
2023-12-10T06:40:00.789Z,4.13
2023-12-10T06:42:06.039Z,3.10
2023-12-10T06:44:16.453Z,3.67
2023-12-10T06:46:21.335Z,3.25
2023-12-10T06:48:27.579Z,3.35
2023-12-10T06:50:36.052Z,3.45
2023-12-10T06:52:39.990Z,3.72
2023-12-10T06:54:49.931Z,3.08
2023-12-10T06:56:57.215Z,5.13
2023-12-10T06:58:59.703Z,3.17
2023-12-10T07:01:04.757Z,3.92
2023-12-10T07:03:10.255Z,4.60
2023-12-10T07:05:19.180Z,2.65
2023-12-10T07:07:24.308Z,4.03
2023-12-10T07:09:33.239Z,3.35
2023-12-10T07:11:38.517Z,3.55
2023-12-10T07:13:43.467Z,4.45
2023-12-10T07:15:54.919Z,2.60
2023-12-10T07:18:03.324Z,2.88
2023-12-10T07:20:13.636Z,4.32
2023-12-10T07:22:19.493Z,3.53
2023-12-10T07:24:24.303Z,2.78
2023-12-10T07:26:29.720Z,3.47
2023-12-10T07:28:39.048Z,3.88
2023-12-10T07:30:44.047Z,4.15
2023-12-10T07:32:50.053Z,3.97
2023-12-10T07:34:54.955Z,3.55
2023-12-10T07:37:00.116Z,3.63
2023-12-10T07:39:05.182Z,4.00
2023-12-10T07:41:10.981Z,3.83
2023-12-10T07:43:18.499Z,3.33
2023-12-10T07:45:26.116Z,3.70
2023-12-10T07:47:31.401Z,4.70
2023-12-10T07:49:36.333Z,4.50
2023-12-10T07:51:41.399Z,3.45
2023-12-10T07:53:46.245Z,3.80
2023-12-10T07:55:55.808Z,3.28
2023-12-10T07:58:00.893Z,3.45
2023-12-10T08:00:06.932Z,3.08
2023-12-10T08:02:14.410Z,3.05
2023-12-10T08:04:25.576Z,3.97
2023-12-10T08:06:32.317Z,3.28
2023-12-10T08:08:37.788Z,3.10
2023-12-10T08:10:43.451Z,3.58
2023-12-10T08:12:49.883Z,2.38
2023-12-10T08:14:53.311Z,2.88
2023-12-10T08:16:58.006Z,2.40
2023-12-10T08:19:08.017Z,2.80
2023-12-10T08:21:15.514Z,4.10
2023-12-10T08:23:22.120Z,4.25
2023-12-10T08:25:29.670Z,3.28
2023-12-10T08:27:36.515Z,3.50
2023-12-10T08:29:41.687Z,4.13
2023-12-10T08:31:46.903Z,3.30
2023-12-10T08:33:52.941Z,2.97
2023-12-10T08:35:58.815Z,4.13
2023-12-10T08:38:03.943Z,2.90
2023-12-10T08:40:14.010Z,3.35
2023-12-10T08:42:18.977Z,3.10
2023-12-10T08:44:25.268Z,2.90
2023-12-10T08:46:30.129Z,2.70
2023-12-10T08:48:37.299Z,3.78
2023-12-10T08:50:45.841Z,4.00
2023-12-10T08:52:53.788Z,2.95
2023-12-10T08:54:59.934Z,2.80
2023-12-10T08:57:04.806Z,2.85
2023-12-10T08:59:14.753Z,4.72
2023-12-10T09:01:20.001Z,2.90
2023-12-10T09:03:25.107Z,3.67
2023-12-10T09:05:29.962Z,2.17
2023-12-10T09:07:45.529Z,2.67
2023-12-10T09:09:59.378Z,3.08
2023-12-10T09:12:11.367Z,3.53
2023-12-10T09:14:18.126Z,2.70
2023-12-10T09:16:24.382Z,2.90
2023-12-10T09:18:29.814Z,2.10
2023-12-10T09:20:34.631Z,2.40
2023-12-10T09:22:42.933Z,2.80
2023-12-10T09:24:45.478Z,3.63
2023-12-10T09:26:53.312Z,3.80
2023-12-10T09:28:58.159Z,2.97
2023-12-10T09:31:02.924Z,4.55
2023-12-10T09:33:08.514Z,3.03
2023-12-10T09:35:13.437Z,2.97
2023-12-10T09:37:18.295Z,2.78
2023-12-10T09:39:23.458Z,3.53
2023-12-10T09:41:30.078Z,3.38
2023-12-10T09:43:39.104Z,2.30
2023-12-10T09:45:43.906Z,2.90
2023-12-10T09:47:52.417Z,3.13
2023-12-10T09:49:59.152Z,2.92
2023-12-10T09:52:04.236Z,3.40
2023-12-10T09:54:09.122Z,2.88
2023-12-10T09:56:14.253Z,3.30
2023-12-10T09:58:16.849Z,2.17
2023-12-10T10:00:24.911Z,3.08
2023-12-10T10:02:44.470Z,3.10
2023-12-10T10:04:50.550Z,2.78
2023-12-10T10:07:00.853Z,2.45
2023-12-10T10:09:06.377Z,2.47
2023-12-10T10:11:11.769Z,3.50
2023-12-10T10:13:18.718Z,2.20
2023-12-10T10:15:32.512Z,3.85
2023-12-10T10:17:40.453Z,3.10
2023-12-10T10:19:46.098Z,3.70
2023-12-10T10:21:51.663Z,2.75
2023-12-10T10:23:59.144Z,2.30
2023-12-10T10:26:08.875Z,2.60
2023-12-10T10:28:15.355Z,4.00
2023-12-10T10:30:21.422Z,2.78
2023-12-10T10:32:30.737Z,3.42
2023-12-10T10:34:37.490Z,2.38
2023-12-10T10:36:43.537Z,3.95
2023-12-10T10:38:50.500Z,1.88
2023-12-10T10:40:56.756Z,3.20
2023-12-10T10:43:08.627Z,3.17
2023-12-10T10:45:17.061Z,2.97
2023-12-10T10:47:22.588Z,2.13
2023-12-10T10:49:33.751Z,2.72
2023-12-10T10:51:40.686Z,2.75
2023-12-10T10:53:46.814Z,2.40
2023-12-10T10:55:52.150Z,3.08
2023-12-10T10:57:58.550Z,2.60
2023-12-10T11:00:05.384Z,2.78
2023-12-10T11:02:13.007Z,2.58
2023-12-10T11:04:22.977Z,3.30
2023-12-10T11:06:30.882Z,3.00
2023-12-10T11:08:35.783Z,2.78
2023-12-10T11:10:46.399Z,2.85
2023-12-10T11:12:50.676Z,3.03
2023-12-10T11:14:56.894Z,3.40
2023-12-10T11:17:03.787Z,3.95
2023-12-10T11:19:11.745Z,3.20
2023-12-10T11:21:16.781Z,3.13
2023-12-10T11:23:24.610Z,3.10
2023-12-10T11:25:27.284Z,2.78
2023-12-10T11:27:35.760Z,2.53
2023-12-10T11:29:42.585Z,2.40
2023-12-10T11:31:48.123Z,2.63
2023-12-10T11:33:53.484Z,2.22
2023-12-10T11:36:32.447Z,2.45
2023-12-10T11:38:27.571Z,2.88
2023-12-10T11:40:36.429Z,2.47
2023-12-10T11:42:42.627Z,2.72
2023-12-10T11:44:53.654Z,3.25
2023-12-10T11:47:03.008Z,2.30
2023-12-10T11:49:18.603Z,3.17
2023-12-10T11:51:26.659Z,4.45
2023-12-10T11:53:34.246Z,2.45
2023-12-10T11:55:39.322Z,2.05
2023-12-10T11:57:42.996Z,2.45
2023-12-10T11:59:49.492Z,2.38
2023-12-10T12:01:54.344Z,2.08
2023-12-10T12:04:02.250Z,2.55
2023-12-10T12:06:07.586Z,3.22
2023-12-10T12:08:12.920Z,2.95
2023-12-10T12:10:21.019Z,3.58
2023-12-10T12:12:26.602Z,3.08
2023-12-10T12:14:33.682Z,2.88
2023-12-10T12:16:42.879Z,2.88
2023-12-10T12:18:55.578Z,3.40
2023-12-10T12:21:00.661Z,4.43
2023-12-10T12:23:07.030Z,3.75
2023-12-10T12:25:15.137Z,3.22
2023-12-10T12:27:25.293Z,3.00
2023-12-10T12:29:30.202Z,2.70
2023-12-10T12:31:35.421Z,2.50
2023-12-10T12:33:40.253Z,3.47
2023-12-10T12:35:46.563Z,3.05
2023-12-10T12:37:48.795Z,3.60
2023-12-10T12:39:54.037Z,3.42
2023-12-10T12:41:58.875Z,3.08
2023-12-10T12:44:08.172Z,3.15
2023-12-10T12:46:17.674Z,4.28
2023-12-10T12:48:22.820Z,3.45
2023-12-10T12:50:28.531Z,3.28
2023-12-10T12:52:37.299Z,4.07
2023-12-10T12:54:42.345Z,4.97
2023-12-10T12:56:50.057Z,3.75
2023-12-10T12:58:58.960Z,3.63
2023-12-10T13:01:09.351Z,3.88
2023-12-10T13:03:14.281Z,5.43
2023-12-10T13:05:19.274Z,5.00
2023-12-10T13:07:25.892Z,4.65
2023-12-10T13:09:30.813Z,5.25
2023-12-10T13:11:37.451Z,5.60
2023-12-10T13:13:42.272Z,5.82
2023-12-10T13:15:47.199Z,4.05
2023-12-10T13:17:54.605Z,4.63
2023-12-10T13:20:02.020Z,4.43
2023-12-10T13:22:07.385Z,3.97
2023-12-10T13:24:14.249Z,4.65
2023-12-10T13:26:20.949Z,5.55
2023-12-10T13:28:26.281Z,4.97
2023-12-10T13:30:34.236Z,4.15
2023-12-10T13:32:42.253Z,3.85
2023-12-10T13:34:50.566Z,4.63
2023-12-10T13:36:59.246Z,5.43
2023-12-10T13:39:07.232Z,4.32
2023-12-10T13:41:12.339Z,5.10
2023-12-10T13:43:17.268Z,4.38
2023-12-10T13:45:23.117Z,4.25
2023-12-10T13:47:27.700Z,5.22
2023-12-10T13:49:37.215Z,4.43
2023-12-10T13:51:46.396Z,4.50
2023-12-10T13:53:49.119Z,4.28
2023-12-10T13:55:54.812Z,4.90
2023-12-10T13:58:02.857Z,5.25
2023-12-10T14:00:13.697Z,4.47
2023-12-10T14:02:19.215Z,4.13
2023-12-10T14:04:24.098Z,4.15
2023-12-10T14:06:29.527Z,4.85
2023-12-10T14:08:41.226Z,5.07
2023-12-10T14:10:48.479Z,4.82
2023-12-10T14:12:55.448Z,4.80
2023-12-10T14:15:00.508Z,6.82
2023-12-10T14:17:05.411Z,5.15
2023-12-10T14:19:16.400Z,4.82
2023-12-10T14:21:31.501Z,5.60
2023-12-10T14:23:40.245Z,6.22
2023-12-10T14:25:45.786Z,7.05
2023-12-10T14:27:50.691Z,5.38
2023-12-10T14:29:57.083Z,6.15
2023-12-10T14:32:04.926Z,4.88
2023-12-10T14:34:09.887Z,6.13
2023-12-10T14:36:14.983Z,5.15
2023-12-10T14:38:19.781Z,5.90
2023-12-10T14:40:30.148Z,6.40
2023-12-10T14:42:44.720Z,6.60
2023-12-10T14:44:51.652Z,5.07
2023-12-10T14:46:58.858Z,6.60
2023-12-10T14:49:03.982Z,5.05
2023-12-10T14:51:09.883Z,5.82
2023-12-10T14:53:17.180Z,6.80
2023-12-10T14:55:24.952Z,7.00
2023-12-10T14:57:36.631Z,5.70
2023-12-10T14:59:43.382Z,6.55
2023-12-10T15:01:58.901Z,6.00
2023-12-10T15:04:08.719Z,5.30
2023-12-10T15:06:13.668Z,5.15
2023-12-10T15:08:18.648Z,5.47
2023-12-10T15:10:26.898Z,5.05
2023-12-10T15:12:34.746Z,5.00
2023-12-10T15:14:42.976Z,5.75
2023-12-10T15:16:47.913Z,5.32
2023-12-10T15:18:53.415Z,3.88
2023-12-10T15:21:03.746Z,4.32
2023-12-10T15:23:11.248Z,4.28
2023-12-10T15:25:16.927Z,4.85
2023-12-10T15:27:21.041Z,4.72
2023-12-10T15:29:34.564Z,3.95
2023-12-10T15:31:44.588Z,3.65
2023-12-10T15:33:49.757Z,4.05
2023-12-10T15:35:54.938Z,5.15
2023-12-10T15:38:05.769Z,3.70
2023-12-10T15:40:16.657Z,2.83
2023-12-10T15:42:23.247Z,3.53
2023-12-10T15:44:30.900Z,3.30
2023-12-10T15:46:33.192Z,3.03
2023-12-10T15:48:39.022Z,3.50
2023-12-10T15:50:46.597Z,3.63
2023-12-10T15:52:51.642Z,2.95
2023-12-10T15:55:01.213Z,3.72
2023-12-10T15:57:06.637Z,3.42
2023-12-10T15:59:13.490Z,3.70
2023-12-10T16:01:24.849Z,3.10
2023-12-10T16:03:29.890Z,2.67
2023-12-10T16:05:35.163Z,3.83
2023-12-10T16:07:48.572Z,2.75
2023-12-10T16:09:56.780Z,3.92
2023-12-10T16:12:02.112Z,3.65
2023-12-10T16:14:07.782Z,4.55
2023-12-10T16:16:13.377Z,3.53
2023-12-10T16:18:20.980Z,3.83
2023-12-10T16:20:26.030Z,3.33
2023-12-10T16:22:31.137Z,3.67
2023-12-10T16:24:36.675Z,3.42
2023-12-10T16:26:42.615Z,4.25
2023-12-10T16:28:48.039Z,3.28
2023-12-10T16:30:52.993Z,4.22
2023-12-10T16:32:57.924Z,3.95
2023-12-10T16:35:02.844Z,4.10
2023-12-10T16:37:08.515Z,4.15
2023-12-10T16:39:13.517Z,4.47
2023-12-10T16:41:15.773Z,4.55
2023-12-10T16:43:20.615Z,4.80
2023-12-10T16:45:25.756Z,4.72
2023-12-10T16:47:33.450Z,3.83
2023-12-10T16:49:38.963Z,3.90
2023-12-10T16:51:46.618Z,4.93
2023-12-10T16:53:51.744Z,5.45
2023-12-10T16:55:56.957Z,4.65
2023-12-10T16:58:01.953Z,6.75
2023-12-10T17:00:11.399Z,4.45
2023-12-10T17:02:14.286Z,5.60
2023-12-10T17:04:19.246Z,4.95
2023-12-10T17:06:27.593Z,4.28
2023-12-10T17:08:38.017Z,4.90
2023-12-10T17:10:45.501Z,5.57
2023-12-10T17:12:50.345Z,5.07
2023-12-10T17:14:55.414Z,4.53
2023-12-10T17:17:00.605Z,4.65
2023-12-10T17:19:05.610Z,5.13
2023-12-10T17:21:11.056Z,4.53
2023-12-10T17:23:16.339Z,5.45
2023-12-10T17:25:23.787Z,4.28
2023-12-10T17:27:30.507Z,4.57
2023-12-10T17:29:35.807Z,4.55
2023-12-10T17:31:40.840Z,6.38
2023-12-10T17:33:46.373Z,4.20
2023-12-10T17:35:51.378Z,4.70
2023-12-10T17:37:56.137Z,4.10
2023-12-10T17:40:01.012Z,4.07
2023-12-10T17:42:09.893Z,4.60
2023-12-10T17:44:18.178Z,3.67
2023-12-10T17:46:21.042Z,4.25
2023-12-10T17:48:26.499Z,4.25
2023-12-10T17:50:31.722Z,4.57
2023-12-10T17:52:43.486Z,4.32
2023-12-10T17:54:48.320Z,3.95
2023-12-10T17:56:53.579Z,4.22
2023-12-10T17:59:01.779Z,3.70
2023-12-10T18:01:07.457Z,3.47
2023-12-10T18:03:16.019Z,3.47
2023-12-10T18:05:21.327Z,3.20
2023-12-10T18:07:28.166Z,3.88
2023-12-10T18:09:37.307Z,3.35
2023-12-10T18:11:58.344Z,4.00
2023-12-10T18:14:03.380Z,3.97
2023-12-10T18:16:09.953Z,4.40
2023-12-10T18:18:16.379Z,3.88
2023-12-10T18:20:21.423Z,4.78
2023-12-10T18:22:29.409Z,4.68
2023-12-10T18:24:34.411Z,4.80
2023-12-10T18:26:41.045Z,4.30
2023-12-10T18:28:46.065Z,4.15
2023-12-10T18:30:53.775Z,4.30
2023-12-10T18:33:00.652Z,4.45
2023-12-10T18:35:10.449Z,4.90
2023-12-10T18:37:15.739Z,3.92
2023-12-10T18:39:20.697Z,4.32
2023-12-10T18:41:27.991Z,4.30
2023-12-10T18:43:33.320Z,4.55
2023-12-10T18:45:40.586Z,4.80
2023-12-10T18:47:48.018Z,4.50
2023-12-10T18:49:56.036Z,5.05
2023-12-10T18:52:02.149Z,3.65
2023-12-10T18:54:07.442Z,4.10
2023-12-10T18:56:13.732Z,3.75
2023-12-10T18:58:16.371Z,4.18
2023-12-10T19:00:21.680Z,4.22
2023-12-10T19:02:27.641Z,4.15
2023-12-10T19:04:35.548Z,3.40
2023-12-10T19:06:41.820Z,3.88
2023-12-10T19:08:48.665Z,3.60
2023-12-10T19:10:54.022Z,4.50
2023-12-10T19:12:59.045Z,3.05
2023-12-10T19:15:04.666Z,3.00
2023-12-10T19:17:10.859Z,3.20
2023-12-10T19:19:15.993Z,2.97
2023-12-10T19:21:20.914Z,3.03
2023-12-10T19:23:28.948Z,3.67
2023-12-10T19:25:36.398Z,4.97
2023-12-10T19:27:42.067Z,3.35
2023-12-10T19:29:48.025Z,4.25
2023-12-10T19:31:52.061Z,3.53
2023-12-10T19:33:56.951Z,4.68
2023-12-10T19:36:02.090Z,3.45
2023-12-10T19:38:11.556Z,3.28
2023-12-10T19:40:17.023Z,4.53
2023-12-10T19:42:22.341Z,3.85
2023-12-10T19:44:27.223Z,4.53
2023-12-10T19:46:32.462Z,3.60
2023-12-10T19:48:40.027Z,3.35
2023-12-10T19:50:47.264Z,5.07
2023-12-10T19:52:54.220Z,3.83
2023-12-10T19:55:02.336Z,4.25
2023-12-10T19:57:08.710Z,3.15
2023-12-10T19:59:14.064Z,4.15
2023-12-10T20:01:21.850Z,4.15
2023-12-10T20:03:26.973Z,3.58
2023-12-10T20:05:32.446Z,5.05
2023-12-10T20:07:37.366Z,3.53
2023-12-10T20:09:41.477Z,4.57
2023-12-10T20:11:50.369Z,3.50
2023-12-10T20:13:58.356Z,4.40
2023-12-10T20:16:05.463Z,4.38
2023-12-10T20:18:10.672Z,4.13
2023-12-10T20:20:17.682Z,4.25
2023-12-10T20:22:22.658Z,4.50
2023-12-10T20:24:34.641Z,5.10
2023-12-10T20:26:47.945Z,3.53
2023-12-10T20:28:55.571Z,4.35
2023-12-10T20:31:00.555Z,4.55
2023-12-10T20:33:05.756Z,4.05
2023-12-10T20:35:15.287Z,4.00
2023-12-10T20:37:20.504Z,3.88
2023-12-10T20:39:29.038Z,3.38
2023-12-10T20:41:34.147Z,3.30
2023-12-10T20:43:39.456Z,4.13
2023-12-10T20:45:47.075Z,3.40
2023-12-10T20:47:52.654Z,5.70
2023-12-10T20:49:57.580Z,4.25
2023-12-10T20:52:02.591Z,3.08
2023-12-10T20:54:05.451Z,4.28
2023-12-10T20:58:15.942Z,4.22
2023-12-10T21:00:22.662Z,4.80
2023-12-10T21:02:33.953Z,3.97
2023-12-10T21:04:39.942Z,4.72
2023-12-10T21:06:45.210Z,4.70
2023-12-10T21:08:50.458Z,3.42
2023-12-10T21:10:56.852Z,4.05
2023-12-10T21:13:02.091Z,3.92
2023-12-10T21:15:08.568Z,5.40
2023-12-10T21:17:16.783Z,4.10
2023-12-10T21:19:25.863Z,6.43
2023-12-10T21:21:30.892Z,4.60
2023-12-10T21:23:38.521Z,2.97
2023-12-10T21:25:44.673Z,3.45
2023-12-10T21:27:48.437Z,4.38
2023-12-10T21:29:54.001Z,4.40
2023-12-10T21:31:58.994Z,4.80
2023-12-10T21:34:05.270Z,4.15
2023-12-10T21:36:13.304Z,4.43
2023-12-10T21:38:20.077Z,3.83
2023-12-10T21:40:27.246Z,3.60
2023-12-10T21:42:33.709Z,4.15
2023-12-10T21:44:39.904Z,5.60
2023-12-10T21:46:47.664Z,4.18
2023-12-10T21:48:52.939Z,4.85
2023-12-10T21:50:57.845Z,5.45
2023-12-10T21:53:05.380Z,5.35
2023-12-10T21:55:08.549Z,3.70
2023-12-10T21:57:14.593Z,3.38
2023-12-10T21:59:19.558Z,5.53
2023-12-10T22:01:24.700Z,3.75
2023-12-10T22:03:33.979Z,4.88
2023-12-10T22:05:40.550Z,4.78
2023-12-10T22:07:45.436Z,4.30
2023-12-10T22:09:53.173Z,4.32
2023-12-10T22:11:57.987Z,5.35
2023-12-10T22:14:04.857Z,6.13
2023-12-10T22:16:10.642Z,6.53
2023-12-10T22:18:18.677Z,5.13
2023-12-10T22:20:23.627Z,5.80
2023-12-10T22:22:29.887Z,5.13
2023-12-10T22:24:34.788Z,5.53
2023-12-10T22:26:42.856Z,5.80
2023-12-10T22:28:47.640Z,6.40
2023-12-10T22:30:52.519Z,5.75
2023-12-10T22:32:59.623Z,6.38
2023-12-10T22:35:02.005Z,4.63
2023-12-10T22:37:08.781Z,7.00
2023-12-10T22:39:14.789Z,5.75
2023-12-10T22:41:22.312Z,4.28
2023-12-10T22:43:29.793Z,5.20
2023-12-10T22:45:34.563Z,6.75
2023-12-10T22:47:43.483Z,5.38
2023-12-10T22:49:49.514Z,5.75
2023-12-10T22:51:54.506Z,5.68
2023-12-10T22:53:59.617Z,5.32
2023-12-10T22:56:05.234Z,4.78
2023-12-10T22:58:10.373Z,6.85
2023-12-10T23:00:23.574Z,4.57
2023-12-10T23:02:28.536Z,6.25
2023-12-10T23:04:33.660Z,7.22
2023-12-10T23:06:38.775Z,5.95
2023-12-10T23:08:44.859Z,6.40
2023-12-10T23:10:49.719Z,7.85
2023-12-10T23:12:52.060Z,7.03
2023-12-10T23:14:57.000Z,4.78
2023-12-10T23:17:04.393Z,6.95
2023-12-10T23:19:10.180Z,6.80
2023-12-10T23:21:16.954Z,5.28
2023-12-10T23:23:21.898Z,5.60
2023-12-10T23:25:26.895Z,7.60
2023-12-10T23:27:32.609Z,5.85
2023-12-10T23:29:38.871Z,7.32
2023-12-10T23:31:46.061Z,5.93
2023-12-10T23:33:54.293Z,7.20
2023-12-10T23:35:59.323Z,7.65
2023-12-10T23:38:04.254Z,6.75
2023-12-10T23:40:12.712Z,5.68
2023-12-10T23:42:17.754Z,5.75
2023-12-10T23:44:22.793Z,6.13
2023-12-10T23:46:27.610Z,6.43
2023-12-10T23:48:33.624Z,6.82
2023-12-10T23:50:38.515Z,6.68
2023-12-10T23:52:43.520Z,9.75
2023-12-10T23:54:48.391Z,6.97
2023-12-10T23:56:53.274Z,7.05
2023-12-10T23:58:58.072Z,6.20
